sensor_id;sensor_type;location;lat;lon;timestamp;temperature;humidity
13436;DHT22;6790;49.520;8.504;2022-09-17T00:01:01;11.00;99.90
13436;DHT22;6790;49.520;8.504;2022-09-17T00:03:27;10.90;99.90
13436;DHT22;6790;49.520;8.504;2022-09-17T00:06:01;10.90;99.90
13436;DHT22;6790;49.520;8.504;2022-09-17T00:08:32;10.90;99.90
13436;DHT22;6790;49.520;8.504;2022-09-17T00:11:08;10.90;99.90
13436;DHT22;6790;49.520;8.504;2022-09-17T00:13:35;10.90;99.90
13436;DHT22;6790;49.520;8.504;2022-09-17T00:16:01;10.90;99.90
13436;DHT22;6790;49.520;8.504;2022-09-17T00:18:27;10.90;99.90
13436;DHT22;6790;49.520;8.504;2022-09-17T00:20:53;10.90;99.90
13436;DHT22;6790;49.520;8.504;2022-09-17T00:23:19;10.90;99.90
13436;DHT22;6790;49.520;8.504;2022-09-17T00:25:45;10.90;99.90
13436;DHT22;6790;49.520;8.504;2022-09-17T00:28:12;10.90;99.90
13436;DHT22;6790;49.520;8.504;2022-09-17T00:30:43;10.90;99.90
13436;DHT22;6790;49.520;8.504;2022-09-17T00:33:11;10.90;99.90
13436;DHT22;6790;49.520;8.504;2022-09-17T00:35:38;10.80;99.90
13436;DHT22;6790;49.520;8.504;2022-09-17T00:38:04;10.80;99.90
13436;DHT22;6790;49.520;8.504;2022-09-17T00:40:30;10.80;99.90
13436;DHT22;6790;49.520;8.504;2022-09-17T00:42:55;10.80;99.90
13436;DHT22;6790;49.520;8.504;2022-09-17T00:45:22;10.80;99.90
13436;DHT22;6790;49.520;8.504;2022-09-17T00:47:58;10.70;99.90
13436;DHT22;6790;49.520;8.504;2022-09-17T00:53:02;10.70;99.90
13436;DHT22;6790;49.520;8.504;2022-09-17T00:56:08;10.70;99.90
13436;DHT22;6790;49.520;8.504;2022-09-17T00:58:56;10.70;99.90
13436;DHT22;6790;49.520;8.504;2022-09-17T01:01:22;10.70;99.90
13436;DHT22;6790;49.520;8.504;2022-09-17T01:03:48;10.70;99.90
13436;DHT22;6790;49.520;8.504;2022-09-17T01:06:37;10.60;99.90
13436;DHT22;6790;49.520;8.504;2022-09-17T01:09:42;10.50;99.90
13436;DHT22;6790;49.520;8.504;2022-09-17T01:18:40;10.50;99.90
13436;DHT22;6790;49.520;8.504;2022-09-17T01:21:44;10.50;99.90
13436;DHT22;6790;49.520;8.504;2022-09-17T01:32:58;10.50;99.90
13436;DHT22;6790;49.520;8.504;2022-09-17T01:38:42;10.40;99.90
13436;DHT22;6790;49.520;8.504;2022-09-17T01:44:43;10.40;99.90
13436;DHT22;6790;49.520;8.504;2022-09-17T01:47:21;10.50;99.90
13436;DHT22;6790;49.520;8.504;2022-09-17T01:49:51;10.50;99.90
13436;DHT22;6790;49.520;8.504;2022-09-17T01:52:19;10.50;99.90
13436;DHT22;6790;49.520;8.504;2022-09-17T01:54:47;10.50;99.90
13436;DHT22;6790;49.520;8.504;2022-09-17T01:59:54;10.50;99.90
13436;DHT22;6790;49.520;8.504;2022-09-17T02:02:34;10.40;99.90
13436;DHT22;6790;49.520;8.504;2022-09-17T02:05:08;10.40;99.90
13436;DHT22;6790;49.520;8.504;2022-09-17T02:07:41;10.40;99.90
13436;DHT22;6790;49.520;8.504;2022-09-17T02:10:16;10.40;99.90
13436;DHT22;6790;49.520;8.504;2022-09-17T02:12:47;10.40;99.90
13436;DHT22;6790;49.520;8.504;2022-09-17T02:15:25;10.40;99.90
13436;DHT22;6790;49.520;8.504;2022-09-17T02:18:43;10.30;99.90
13436;DHT22;6790;49.520;8.504;2022-09-17T02:20:51;10.20;99.90
13436;DHT22;6790;49.520;8.504;2022-09-17T02:23:29;10.20;99.90
13436;DHT22;6790;49.520;8.504;2022-09-17T02:26:05;10.20;99.90
13436;DHT22;6790;49.520;8.504;2022-09-17T02:28:41;10.30;99.90
13436;DHT22;6790;49.520;8.504;2022-09-17T02:31:11;10.30;99.90
13436;DHT22;6790;49.520;8.504;2022-09-17T02:33:40;10.30;99.90
13436;DHT22;6790;49.520;8.504;2022-09-17T02:36:08;10.30;99.90
13436;DHT22;6790;49.520;8.504;2022-09-17T02:38:34;10.20;99.90
13436;DHT22;6790;49.520;8.504;2022-09-17T02:59:06;10.20;99.90
13436;DHT22;6790;49.520;8.504;2022-09-17T03:01:43;10.20;99.90
13436;DHT22;6790;49.520;8.504;2022-09-17T03:04:15;10.20;99.90
13436;DHT22;6790;49.520;8.504;2022-09-17T03:06:45;10.20;99.90
13436;DHT22;6790;49.520;8.504;2022-09-17T03:09:15;10.20;99.90
13436;DHT22;6790;49.520;8.504;2022-09-17T03:11:41;10.30;99.90
13436;DHT22;6790;49.520;8.504;2022-09-17T03:14:06;10.40;99.90
13436;DHT22;6790;49.520;8.504;2022-09-17T03:16:32;10.40;99.90
13436;DHT22;6790;49.520;8.504;2022-09-17T03:18:58;10.40;99.90
13436;DHT22;6790;49.520;8.504;2022-09-17T03:21:23;10.50;99.90
13436;DHT22;6790;49.520;8.504;2022-09-17T03:23:49;10.50;99.90
13436;DHT22;6790;49.520;8.504;2022-09-17T03:26:15;10.50;99.90
13436;DHT22;6790;49.520;8.504;2022-09-17T03:28:40;10.50;99.90
13436;DHT22;6790;49.520;8.504;2022-09-17T03:31:06;10.50;99.90
13436;DHT22;6790;49.520;8.504;2022-09-17T03:33:32;10.60;99.90
13436;DHT22;6790;49.520;8.504;2022-09-17T03:35:58;10.50;99.90
13436;DHT22;6790;49.520;8.504;2022-09-17T03:38:23;10.60;99.90
13436;DHT22;6790;49.520;8.504;2022-09-17T03:40:59;10.60;99.90
13436;DHT22;6790;49.520;8.504;2022-09-17T03:43:27;10.60;99.90
13436;DHT22;6790;49.520;8.504;2022-09-17T03:45:53;10.60;99.90
13436;DHT22;6790;49.520;8.504;2022-09-17T03:48:18;10.60;99.90
13436;DHT22;6790;49.520;8.504;2022-09-17T03:50:44;10.60;99.90
13436;DHT22;6790;49.520;8.504;2022-09-17T03:53:10;10.60;99.90
13436;DHT22;6790;49.520;8.504;2022-09-17T03:55:38;10.60;99.90
13436;DHT22;6790;49.520;8.504;2022-09-17T03:58:04;10.60;99.90
13436;DHT22;6790;49.520;8.504;2022-09-17T04:00:30;10.60;99.90
13436;DHT22;6790;49.520;8.504;2022-09-17T04:02:56;10.60;99.90
13436;DHT22;6790;49.520;8.504;2022-09-17T04:05:22;10.60;99.90
13436;DHT22;6790;49.520;8.504;2022-09-17T04:07:48;10.60;99.90
13436;DHT22;6790;49.520;8.504;2022-09-17T04:10:13;10.60;99.90
13436;DHT22;6790;49.520;8.504;2022-09-17T04:12:39;10.60;99.90
13436;DHT22;6790;49.520;8.504;2022-09-17T04:15:05;10.60;99.90
13436;DHT22;6790;49.520;8.504;2022-09-17T04:17:32;10.60;99.90
13436;DHT22;6790;49.520;8.504;2022-09-17T04:19:58;10.60;99.90
13436;DHT22;6790;49.520;8.504;2022-09-17T04:22:24;10.60;99.90
13436;DHT22;6790;49.520;8.504;2022-09-17T04:24:50;10.60;99.90
13436;DHT22;6790;49.520;8.504;2022-09-17T04:27:15;10.60;99.90
13436;DHT22;6790;49.520;8.504;2022-09-17T04:29:41;10.70;99.90
13436;DHT22;6790;49.520;8.504;2022-09-17T04:32:07;10.60;99.90
13436;DHT22;6790;49.520;8.504;2022-09-17T04:34:33;10.60;99.90
13436;DHT22;6790;49.520;8.504;2022-09-17T04:36:59;10.70;99.90
13436;DHT22;6790;49.520;8.504;2022-09-17T04:39:25;10.70;99.90
13436;DHT22;6790;49.520;8.504;2022-09-17T04:41:50;10.70;99.90
13436;DHT22;6790;49.520;8.504;2022-09-17T04:44:16;10.70;99.90
13436;DHT22;6790;49.520;8.504;2022-09-17T04:46:42;10.70;99.90
13436;DHT22;6790;49.520;8.504;2022-09-17T04:49:07;10.70;99.90
13436;DHT22;6790;49.520;8.504;2022-09-17T04:51:33;10.70;99.90
13436;DHT22;6790;49.520;8.504;2022-09-17T04:53:59;10.70;99.90
13436;DHT22;6790;49.520;8.504;2022-09-17T04:56:25;10.70;99.90
13436;DHT22;6790;49.520;8.504;2022-09-17T04:58:51;10.70;99.90
13436;DHT22;6790;49.520;8.504;2022-09-17T05:01:16;10.80;99.90
13436;DHT22;6790;49.520;8.504;2022-09-17T05:03:44;10.80;99.90
13436;DHT22;6790;49.520;8.504;2022-09-17T05:06:10;10.70;99.90
13436;DHT22;6790;49.520;8.504;2022-09-17T05:08:36;10.70;99.90
13436;DHT22;6790;49.520;8.504;2022-09-17T05:11:02;10.70;99.90
13436;DHT22;6790;49.520;8.504;2022-09-17T05:13:28;10.70;99.90
13436;DHT22;6790;49.520;8.504;2022-09-17T05:15:54;10.70;99.90
13436;DHT22;6790;49.520;8.504;2022-09-17T05:18:23;10.70;99.90
13436;DHT22;6790;49.520;8.504;2022-09-17T05:20:48;10.70;99.90
13436;DHT22;6790;49.520;8.504;2022-09-17T05:23:14;10.70;99.90
13436;DHT22;6790;49.520;8.504;2022-09-17T05:25:40;10.70;99.90
13436;DHT22;6790;49.520;8.504;2022-09-17T05:28:06;10.70;99.90
13436;DHT22;6790;49.520;8.504;2022-09-17T05:30:32;10.70;99.90
13436;DHT22;6790;49.520;8.504;2022-09-17T05:32:59;10.70;99.90
13436;DHT22;6790;49.520;8.504;2022-09-17T05:35:27;10.70;99.90
13436;DHT22;6790;49.520;8.504;2022-09-17T05:38:00;10.70;99.90
13436;DHT22;6790;49.520;8.504;2022-09-17T05:40:31;10.70;99.90
13436;DHT22;6790;49.520;8.504;2022-09-17T05:42:59;10.70;99.90
13436;DHT22;6790;49.520;8.504;2022-09-17T05:45:25;10.70;99.90
13436;DHT22;6790;49.520;8.504;2022-09-17T05:47:58;10.70;99.90
13436;DHT22;6790;49.520;8.504;2022-09-17T05:50:25;10.70;99.90
13436;DHT22;6790;49.520;8.504;2022-09-17T05:52:52;10.70;99.90
13436;DHT22;6790;49.520;8.504;2022-09-17T05:55:19;10.80;99.90
13436;DHT22;6790;49.520;8.504;2022-09-17T05:57:47;10.80;99.90
13436;DHT22;6790;49.520;8.504;2022-09-17T06:00:14;10.80;99.90
13436;DHT22;6790;49.520;8.504;2022-09-17T06:02:40;10.80;99.90
13436;DHT22;6790;49.520;8.504;2022-09-17T06:05:06;10.90;99.90
13436;DHT22;6790;49.520;8.504;2022-09-17T06:07:35;10.90;99.90
13436;DHT22;6790;49.520;8.504;2022-09-17T06:10:02;11.00;99.90
13436;DHT22;6790;49.520;8.504;2022-09-17T06:12:29;11.10;99.90
13436;DHT22;6790;49.520;8.504;2022-09-17T06:14:54;11.20;99.90
13436;DHT22;6790;49.520;8.504;2022-09-17T06:17:20;11.30;99.90
13436;DHT22;6790;49.520;8.504;2022-09-17T06:19:45;11.40;99.90
13436;DHT22;6790;49.520;8.504;2022-09-17T06:22:11;11.40;99.90
13436;DHT22;6790;49.520;8.504;2022-09-17T06:24:37;11.40;99.90
13436;DHT22;6790;49.520;8.504;2022-09-17T06:27:02;11.40;99.90
13436;DHT22;6790;49.520;8.504;2022-09-17T06:29:29;11.30;99.90
13436;DHT22;6790;49.520;8.504;2022-09-17T06:31:55;11.30;99.90
13436;DHT22;6790;49.520;8.504;2022-09-17T06:34:20;11.30;99.90
13436;DHT22;6790;49.520;8.504;2022-09-17T06:36:47;11.30;99.90
13436;DHT22;6790;49.520;8.504;2022-09-17T06:39:13;11.20;99.90
13436;DHT22;6790;49.520;8.504;2022-09-17T06:41:40;11.30;99.90
13436;DHT22;6790;49.520;8.504;2022-09-17T06:44:07;11.30;99.90
13436;DHT22;6790;49.520;8.504;2022-09-17T06:46:33;11.30;99.90
13436;DHT22;6790;49.520;8.504;2022-09-17T06:48:59;11.40;99.90
13436;DHT22;6790;49.520;8.504;2022-09-17T06:51:24;11.40;99.90
13436;DHT22;6790;49.520;8.504;2022-09-17T06:53:50;11.40;99.90
13436;DHT22;6790;49.520;8.504;2022-09-17T06:56:16;11.40;99.90
13436;DHT22;6790;49.520;8.504;2022-09-17T06:58:43;11.30;99.90
13436;DHT22;6790;49.520;8.504;2022-09-17T07:01:10;11.20;99.90
13436;DHT22;6790;49.520;8.504;2022-09-17T07:03:36;11.30;99.90
13436;DHT22;6790;49.520;8.504;2022-09-17T07:06:03;11.30;99.90
13436;DHT22;6790;49.520;8.504;2022-09-17T07:08:31;11.50;99.90
13436;DHT22;6790;49.520;8.504;2022-09-17T07:10:58;11.60;99.90
13436;DHT22;6790;49.520;8.504;2022-09-17T07:13:25;11.90;99.90
13436;DHT22;6790;49.520;8.504;2022-09-17T07:15:55;11.90;99.90
13436;DHT22;6790;49.520;8.504;2022-09-17T07:18:22;11.80;99.90
13436;DHT22;6790;49.520;8.504;2022-09-17T07:20:53;11.80;99.90
13436;DHT22;6790;49.520;8.504;2022-09-17T07:23:23;11.80;99.90
13436;DHT22;6790;49.520;8.504;2022-09-17T07:26:00;11.90;99.90
13436;DHT22;6790;49.520;8.504;2022-09-17T07:28:27;11.90;99.90
13436;DHT22;6790;49.520;8.504;2022-09-17T07:30:54;12.00;99.90
13436;DHT22;6790;49.520;8.504;2022-09-17T07:33:22;12.10;99.90
13436;DHT22;6790;49.520;8.504;2022-09-17T07:36:00;12.20;99.90
13436;DHT22;6790;49.520;8.504;2022-09-17T07:38:28;12.30;99.90
13436;DHT22;6790;49.520;8.504;2022-09-17T07:40:58;12.50;99.90
13436;DHT22;6790;49.520;8.504;2022-09-17T07:43:26;12.40;99.90
13436;DHT22;6790;49.520;8.504;2022-09-17T07:45:53;12.50;99.90
13436;DHT22;6790;49.520;8.504;2022-09-17T07:48:21;12.80;99.90
13436;DHT22;6790;49.520;8.504;2022-09-17T07:50:47;13.00;99.90
13436;DHT22;6790;49.520;8.504;2022-09-17T07:53:13;13.30;99.90
13436;DHT22;6790;49.520;8.504;2022-09-17T07:55:38;13.50;99.90
13436;DHT22;6790;49.520;8.504;2022-09-17T07:58:04;13.50;99.90
13436;DHT22;6790;49.520;8.504;2022-09-17T08:00:30;13.60;99.90
13436;DHT22;6790;49.520;8.504;2022-09-17T08:02:56;13.70;99.90
13436;DHT22;6790;49.520;8.504;2022-09-17T08:05:22;13.80;99.90
13436;DHT22;6790;49.520;8.504;2022-09-17T08:07:53;13.90;99.90
13436;DHT22;6790;49.520;8.504;2022-09-17T08:10:21;13.70;99.90
13436;DHT22;6790;49.520;8.504;2022-09-17T08:12:54;13.50;99.90
13436;DHT22;6790;49.520;8.504;2022-09-17T08:15:21;13.40;99.90
13436;DHT22;6790;49.520;8.504;2022-09-17T08:17:47;13.30;99.90
13436;DHT22;6790;49.520;8.504;2022-09-17T08:20:14;13.20;99.90
13436;DHT22;6790;49.520;8.504;2022-09-17T08:22:41;13.30;99.90
13436;DHT22;6790;49.520;8.504;2022-09-17T08:25:07;13.40;99.90
13436;DHT22;6790;49.520;8.504;2022-09-17T08:27:34;13.50;99.90
13436;DHT22;6790;49.520;8.504;2022-09-17T08:30:00;13.50;99.90
13436;DHT22;6790;49.520;8.504;2022-09-17T08:32:28;13.40;99.90
13436;DHT22;6790;49.520;8.504;2022-09-17T08:34:54;13.30;99.90
13436;DHT22;6790;49.520;8.504;2022-09-17T08:37:20;13.40;99.90
13436;DHT22;6790;49.520;8.504;2022-09-17T08:39:46;13.40;99.90
13436;DHT22;6790;49.520;8.504;2022-09-17T08:42:45;13.90;99.90
13436;DHT22;6790;49.520;8.504;2022-09-17T08:45:16;14.60;99.90
13436;DHT22;6790;49.520;8.504;2022-09-17T08:47:45;15.10;99.90
13436;DHT22;6790;49.520;8.504;2022-09-17T08:50:30;14.50;99.90
13436;DHT22;6790;49.520;8.504;2022-09-17T08:55:42;13.70;99.90
13436;DHT22;6790;49.520;8.504;2022-09-17T09:06:34;14.90;99.90
13436;DHT22;6790;49.520;8.504;2022-09-17T09:09:09;14.60;99.90
13436;DHT22;6790;49.520;8.504;2022-09-17T09:11:39;14.40;99.90
13436;DHT22;6790;49.520;8.504;2022-09-17T09:16:48;14.30;99.90
13436;DHT22;6790;49.520;8.504;2022-09-17T09:19:23;14.20;99.90
13436;DHT22;6790;49.520;8.504;2022-09-17T09:21:59;14.10;99.90
13436;DHT22;6790;49.520;8.504;2022-09-17T09:24:45;14.00;99.90
13436;DHT22;6790;49.520;8.504;2022-09-17T09:27:35;13.90;99.90
13436;DHT22;6790;49.520;8.504;2022-09-17T09:35:42;15.00;99.90
13436;DHT22;6790;49.520;8.504;2022-09-17T09:41:13;15.80;99.90
13436;DHT22;6790;49.520;8.504;2022-09-17T09:43:47;16.30;99.90
13436;DHT22;6790;49.520;8.504;2022-09-17T09:58:51;15.40;99.90
13436;DHT22;6790;49.520;8.504;2022-09-17T10:01:18;15.40;99.90
13436;DHT22;6790;49.520;8.504;2022-09-17T10:03:49;15.90;99.90
13436;DHT22;6790;49.520;8.504;2022-09-17T10:06:17;16.00;99.90
13436;DHT22;6790;49.520;8.504;2022-09-17T10:11:27;15.50;99.90
13436;DHT22;6790;49.520;8.504;2022-09-17T10:14:14;15.30;99.90
13436;DHT22;6790;49.520;8.504;2022-09-17T10:16:45;15.30;99.90
13436;DHT22;6790;49.520;8.504;2022-09-17T10:19:19;14.90;99.90
13436;DHT22;6790;49.520;8.504;2022-09-17T10:21:50;14.70;99.90
13436;DHT22;6790;49.520;8.504;2022-09-17T10:24:25;15.00;99.90
13436;DHT22;6790;49.520;8.504;2022-09-17T10:27:00;15.60;99.90
13436;DHT22;6790;49.520;8.504;2022-09-17T10:29:27;16.10;99.90
13436;DHT22;6790;49.520;8.504;2022-09-17T10:31:55;16.60;99.90
13436;DHT22;6790;49.520;8.504;2022-09-17T10:34:24;16.80;99.90
13436;DHT22;6790;49.520;8.504;2022-09-17T10:36:52;17.10;99.90
13436;DHT22;6790;49.520;8.504;2022-09-17T10:42:00;17.60;99.90
13436;DHT22;6790;49.520;8.504;2022-09-17T10:44:37;17.40;99.90
13436;DHT22;6790;49.520;8.504;2022-09-17T10:49:52;17.10;99.90
13436;DHT22;6790;49.520;8.504;2022-09-17T10:52:50;16.70;99.90
13436;DHT22;6790;49.520;8.504;2022-09-17T11:20:50;15.80;99.90
13436;DHT22;6790;49.520;8.504;2022-09-17T11:23:48;15.90;99.90
13436;DHT22;6790;49.520;8.504;2022-09-17T11:29:45;16.30;99.90
13436;DHT22;6790;49.520;8.504;2022-09-17T11:35:09;16.40;99.90
13436;DHT22;6790;49.520;8.504;2022-09-17T11:37:49;16.30;99.90
13436;DHT22;6790;49.520;8.504;2022-09-17T11:40:42;16.30;99.90
13436;DHT22;6790;49.520;8.504;2022-09-17T11:43:25;16.20;99.90
13436;DHT22;6790;49.520;8.504;2022-09-17T11:48:45;16.10;99.80
13436;DHT22;6790;49.520;8.504;2022-09-17T11:51:18;16.20;99.90
13436;DHT22;6790;49.520;8.504;2022-09-17T11:56:34;16.30;99.90
13436;DHT22;6790;49.520;8.504;2022-09-17T11:59:21;16.30;99.90
13436;DHT22;6790;49.520;8.504;2022-09-17T12:02:03;16.40;99.90
13436;DHT22;6790;49.520;8.504;2022-09-17T12:13:39;16.30;99.60
13436;DHT22;6790;49.520;8.504;2022-09-17T12:16:12;16.20;99.90
13436;DHT22;6790;49.520;8.504;2022-09-17T12:21:43;15.90;99.90
13436;DHT22;6790;49.520;8.504;2022-09-17T12:24:27;16.10;99.90
13436;DHT22;6790;49.520;8.504;2022-09-17T12:48:06;17.00;97.10
13436;DHT22;6790;49.520;8.504;2022-09-17T12:53:30;17.60;99.40
13436;DHT22;6790;49.520;8.504;2022-09-17T12:56:10;17.30;95.70
13436;DHT22;6790;49.520;8.504;2022-09-17T12:59:01;17.50;99.40
13436;DHT22;6790;49.520;8.504;2022-09-17T13:01:55;17.70;97.70
13436;DHT22;6790;49.520;8.504;2022-09-17T13:05:09;17.60;97.50
13436;DHT22;6790;49.520;8.504;2022-09-17T13:17:01;17.30;96.00
13436;DHT22;6790;49.520;8.504;2022-09-17T13:22:19;17.50;95.90
13436;DHT22;6790;49.520;8.504;2022-09-17T13:24:47;17.60;95.20
13436;DHT22;6790;49.520;8.504;2022-09-17T13:27:27;17.70;95.50
13436;DHT22;6790;49.520;8.504;2022-09-17T13:37:56;17.50;95.90
13436;DHT22;6790;49.520;8.504;2022-09-17T13:40:33;17.50;95.90
13436;DHT22;6790;49.520;8.504;2022-09-17T13:45:31;17.30;95.10
13436;DHT22;6790;49.520;8.504;2022-09-17T13:50:41;17.10;94.70
13436;DHT22;6790;49.520;8.504;2022-09-17T13:53:16;17.30;96.50
13436;DHT22;6790;49.520;8.504;2022-09-17T13:55:50;17.30;95.50
13436;DHT22;6790;49.520;8.504;2022-09-17T14:01:03;17.00;94.20
13436;DHT22;6790;49.520;8.504;2022-09-17T14:21:40;17.20;91.90
13436;DHT22;6790;49.520;8.504;2022-09-17T14:24:22;17.10;93.50
13436;DHT22;6790;49.520;8.504;2022-09-17T14:38:31;17.00;92.60
13436;DHT22;6790;49.520;8.504;2022-09-17T14:41:04;17.20;91.40
13436;DHT22;6790;49.520;8.504;2022-09-17T14:43:54;17.00;87.80
13436;DHT22;6790;49.520;8.504;2022-09-17T14:46:36;17.10;88.90
13436;DHT22;6790;49.520;8.504;2022-09-17T14:49:24;16.80;89.30
13436;DHT22;6790;49.520;8.504;2022-09-17T14:51:53;16.70;92.50
13436;DHT22;6790;49.520;8.504;2022-09-17T14:54:25;16.70;91.80
13436;DHT22;6790;49.520;8.504;2022-09-17T14:56:56;16.80;92.80
13436;DHT22;6790;49.520;8.504;2022-09-17T14:59:34;16.70;92.70
13436;DHT22;6790;49.520;8.504;2022-09-17T15:02:40;16.50;92.60
13436;DHT22;6790;49.520;8.504;2022-09-17T15:07:47;16.30;93.80
13436;DHT22;6790;49.520;8.504;2022-09-17T15:10:16;16.20;92.80
13436;DHT22;6790;49.520;8.504;2022-09-17T15:12:45;16.00;95.30
13436;DHT22;6790;49.520;8.504;2022-09-17T15:15:19;15.90;93.90
13436;DHT22;6790;49.520;8.504;2022-09-17T15:17:48;15.90;94.90
13436;DHT22;6790;49.520;8.504;2022-09-17T15:20:23;15.90;94.50
13436;DHT22;6790;49.520;8.504;2022-09-17T15:23:17;15.80;95.50
13436;DHT22;6790;49.520;8.504;2022-09-17T15:25:49;15.80;95.80
13436;DHT22;6790;49.520;8.504;2022-09-17T15:28:28;15.90;96.40
13436;DHT22;6790;49.520;8.504;2022-09-17T15:31:02;15.80;95.50
13436;DHT22;6790;49.520;8.504;2022-09-17T15:33:31;15.80;97.70
13436;DHT22;6790;49.520;8.504;2022-09-17T15:36:20;15.70;99.20
13436;DHT22;6790;49.520;8.504;2022-09-17T15:38:48;15.70;99.10
13436;DHT22;6790;49.520;8.504;2022-09-17T15:43:44;15.50;99.90
13436;DHT22;6790;49.520;8.504;2022-09-17T15:46:29;15.50;99.90
13436;DHT22;6790;49.520;8.504;2022-09-17T15:49:03;15.50;99.90
13436;DHT22;6790;49.520;8.504;2022-09-17T15:51:51;15.50;99.90
13436;DHT22;6790;49.520;8.504;2022-09-17T15:54:31;15.60;99.50
13436;DHT22;6790;49.520;8.504;2022-09-17T15:56:59;15.90;99.90
13436;DHT22;6790;49.520;8.504;2022-09-17T15:59:30;16.80;97.70
13436;DHT22;6790;49.520;8.504;2022-09-17T16:02:00;16.90;94.80
13436;DHT22;6790;49.520;8.504;2022-09-17T16:04:33;16.20;97.70
13436;DHT22;6790;49.520;8.504;2022-09-17T16:07:25;15.80;98.90
13436;DHT22;6790;49.520;8.504;2022-09-17T16:09:52;15.50;99.90
13436;DHT22;6790;49.520;8.504;2022-09-17T16:12:23;15.30;99.90
13436;DHT22;6790;49.520;8.504;2022-09-17T16:14:57;15.20;99.90
13436;DHT22;6790;49.520;8.504;2022-09-17T16:20:20;14.90;99.90
13436;DHT22;6790;49.520;8.504;2022-09-17T16:22:48;14.80;99.90
13436;DHT22;6790;49.520;8.504;2022-09-17T16:25:16;14.70;99.90
13436;DHT22;6790;49.520;8.504;2022-09-17T16:27:46;14.30;99.90
13436;DHT22;6790;49.520;8.504;2022-09-17T16:30:16;13.90;99.90
13436;DHT22;6790;49.520;8.504;2022-09-17T16:32:44;13.40;99.90
13436;DHT22;6790;49.520;8.504;2022-09-17T16:35:15;13.30;99.90
13436;DHT22;6790;49.520;8.504;2022-09-17T16:37:41;13.20;99.90
13436;DHT22;6790;49.520;8.504;2022-09-17T16:40:11;13.00;99.90
13436;DHT22;6790;49.520;8.504;2022-09-17T16:42:38;12.70;99.90
13436;DHT22;6790;49.520;8.504;2022-09-17T16:45:05;12.60;99.90
13436;DHT22;6790;49.520;8.504;2022-09-17T16:47:39;12.50;99.90
13436;DHT22;6790;49.520;8.504;2022-09-17T16:50:07;12.40;99.90
13436;DHT22;6790;49.520;8.504;2022-09-17T16:52:35;12.20;99.90
13436;DHT22;6790;49.520;8.504;2022-09-17T16:55:01;12.20;99.90
13436;DHT22;6790;49.520;8.504;2022-09-17T16:57:28;12.10;99.90
13436;DHT22;6790;49.520;8.504;2022-09-17T16:59:54;12.10;99.90
13436;DHT22;6790;49.520;8.504;2022-09-17T17:02:20;12.10;99.90
13436;DHT22;6790;49.520;8.504;2022-09-17T17:04:46;12.10;99.90
13436;DHT22;6790;49.520;8.504;2022-09-17T17:07:12;11.90;99.90
13436;DHT22;6790;49.520;8.504;2022-09-17T17:09:38;11.90;99.90
13436;DHT22;6790;49.520;8.504;2022-09-17T17:12:03;11.90;99.90
13436;DHT22;6790;49.520;8.504;2022-09-17T17:14:29;11.80;99.90
13436;DHT22;6790;49.520;8.504;2022-09-17T17:16:55;11.70;99.90
13436;DHT22;6790;49.520;8.504;2022-09-17T17:19:21;11.70;99.90
13436;DHT22;6790;49.520;8.504;2022-09-17T17:21:49;11.70;99.90
13436;DHT22;6790;49.520;8.504;2022-09-17T17:24:16;11.70;99.90
13436;DHT22;6790;49.520;8.504;2022-09-17T17:26:42;11.70;99.90
13436;DHT22;6790;49.520;8.504;2022-09-17T17:29:07;11.60;99.90
13436;DHT22;6790;49.520;8.504;2022-09-17T17:31:34;11.60;99.90
13436;DHT22;6790;49.520;8.504;2022-09-17T17:34:00;11.60;99.90
13436;DHT22;6790;49.520;8.504;2022-09-17T17:36:26;11.60;99.90
13436;DHT22;6790;49.520;8.504;2022-09-17T17:38:58;11.60;99.90
13436;DHT22;6790;49.520;8.504;2022-09-17T17:41:25;11.50;99.90
13436;DHT22;6790;49.520;8.504;2022-09-17T17:43:55;11.50;99.90
13436;DHT22;6790;49.520;8.504;2022-09-17T17:46:22;11.50;99.90
13436;DHT22;6790;49.520;8.504;2022-09-17T17:48:48;11.50;99.90
13436;DHT22;6790;49.520;8.504;2022-09-17T17:51:15;11.50;99.90
13436;DHT22;6790;49.520;8.504;2022-09-17T17:53:43;11.50;99.90
13436;DHT22;6790;49.520;8.504;2022-09-17T17:56:09;11.60;99.90
13436;DHT22;6790;49.520;8.504;2022-09-17T17:58:36;11.50;99.90
13436;DHT22;6790;49.520;8.504;2022-09-17T18:01:14;11.60;99.90
13436;DHT22;6790;49.520;8.504;2022-09-17T18:03:41;11.50;99.90
13436;DHT22;6790;49.520;8.504;2022-09-17T18:06:07;11.60;99.90
13436;DHT22;6790;49.520;8.504;2022-09-17T18:08:41;11.60;99.90
13436;DHT22;6790;49.520;8.504;2022-09-17T18:11:09;11.60;99.90
13436;DHT22;6790;49.520;8.504;2022-09-17T18:13:36;11.60;99.90
13436;DHT22;6790;49.520;8.504;2022-09-17T18:16:04;11.70;99.90
13436;DHT22;6790;49.520;8.504;2022-09-17T18:18:38;11.70;99.90
13436;DHT22;6790;49.520;8.504;2022-09-17T18:21:08;11.60;99.90
13436;DHT22;6790;49.520;8.504;2022-09-17T18:23:36;11.60;99.90
13436;DHT22;6790;49.520;8.504;2022-09-17T18:26:04;11.60;99.90
13436;DHT22;6790;49.520;8.504;2022-09-17T18:28:33;11.60;99.90
13436;DHT22;6790;49.520;8.504;2022-09-17T18:31:07;11.50;99.90
13436;DHT22;6790;49.520;8.504;2022-09-17T18:33:34;11.30;99.90
13436;DHT22;6790;49.520;8.504;2022-09-17T18:36:01;11.20;99.90
13436;DHT22;6790;49.520;8.504;2022-09-17T18:38:28;11.30;99.90
13436;DHT22;6790;49.520;8.504;2022-09-17T18:40:54;11.20;99.90
13436;DHT22;6790;49.520;8.504;2022-09-17T18:43:20;11.30;99.90
13436;DHT22;6790;49.520;8.504;2022-09-17T18:45:53;11.40;99.90
13436;DHT22;6790;49.520;8.504;2022-09-17T18:48:20;11.50;99.90
13436;DHT22;6790;49.520;8.504;2022-09-17T18:50:57;11.50;99.90
13436;DHT22;6790;49.520;8.504;2022-09-17T18:53:25;11.60;99.90
13436;DHT22;6790;49.520;8.504;2022-09-17T18:55:56;11.60;99.90
13436;DHT22;6790;49.520;8.504;2022-09-17T18:58:24;11.60;99.90
13436;DHT22;6790;49.520;8.504;2022-09-17T19:00:50;11.50;99.90
13436;DHT22;6790;49.520;8.504;2022-09-17T19:03:16;11.50;99.90
13436;DHT22;6790;49.520;8.504;2022-09-17T19:05:41;11.30;99.90
13436;DHT22;6790;49.520;8.504;2022-09-17T19:08:07;11.30;99.90
13436;DHT22;6790;49.520;8.504;2022-09-17T19:10:33;11.20;99.90
13436;DHT22;6790;49.520;8.504;2022-09-17T19:13:00;11.20;99.90
13436;DHT22;6790;49.520;8.504;2022-09-17T19:15:27;11.10;99.90
13436;DHT22;6790;49.520;8.504;2022-09-17T19:17:53;11.10;99.90
13436;DHT22;6790;49.520;8.504;2022-09-17T19:20:19;11.10;99.90
13436;DHT22;6790;49.520;8.504;2022-09-17T19:22:48;11.10;99.90
13436;DHT22;6790;49.520;8.504;2022-09-17T19:25:14;11.00;99.90
13436;DHT22;6790;49.520;8.504;2022-09-17T19:27:39;11.00;99.90
13436;DHT22;6790;49.520;8.504;2022-09-17T19:30:05;10.90;99.90
13436;DHT22;6790;49.520;8.504;2022-09-17T19:32:32;11.00;99.90
13436;DHT22;6790;49.520;8.504;2022-09-17T19:34:58;11.00;99.90
13436;DHT22;6790;49.520;8.504;2022-09-17T19:37:25;10.90;99.90
13436;DHT22;6790;49.520;8.504;2022-09-17T19:39:51;10.90;99.90
13436;DHT22;6790;49.520;8.504;2022-09-17T19:42:16;10.90;99.90
13436;DHT22;6790;49.520;8.504;2022-09-17T19:44:42;10.90;99.90
13436;DHT22;6790;49.520;8.504;2022-09-17T19:47:08;10.80;99.90
13436;DHT22;6790;49.520;8.504;2022-09-17T19:49:33;10.70;99.90
13436;DHT22;6790;49.520;8.504;2022-09-17T19:51:59;10.80;99.90